Archival Weather

Norman Y Mineta San Jose Intl

San Jose, California (KSJC)

Report from: Wednesday, February 7, 2024 12:53 AM PST
Current time: Monday, June 24, 2024 3:40 AM PDT

Current weather – Weather history – Daily summaries
Weather forecast

Temperature9.4°C (48.9°F)
Wind chill8.9°C (48.1°F)
Dew point6.1°C (43.0°F)
Winds 3 kts (1.5 m/s, 3.5 mph) South-Southeast (150°)
Visibility10 mi. (16.1 km)
Clouds Ceiling: Broken clouds 3,500 ft. (1,067 m)
Altimeter29.79 in.Hg (1009 mB)
Relative humidity80 %
Density altitude-379 ft. (-116 m)
Sea-level pressure100.9 kPa (1009 mB, 29.79 in.Hg)
Remarks Fully automated report
Automated weather observing station with precipitation discriminator
Pressure rising more slowly
Flight conditions Visual Meteorological Conditions
Raw dataKSJC 070853Z AUTO 15003KT 10SM BKN035 09/06 A2979 RMK AO2 SLP087 T00940061 51016
An error has occurred. This application may no longer respond until reloaded. Reload 🗙